sensor_id;sensor_type;location;lat;lon;timestamp;P1;durP1;ratioP1;P2;durP2;ratioP2
42964;SDS011;28604;51.204;22.552;2023-08-30T00:00:13;8.57;;;4.40;;
42964;SDS011;28604;51.204;22.552;2023-08-30T00:02:59;7.18;;;4.03;;
42964;SDS011;28604;51.204;22.552;2023-08-30T00:05:26;7.80;;;4.88;;
42964;SDS011;28604;51.204;22.552;2023-08-30T00:07:53;4.05;;;3.78;;
42964;SDS011;28604;51.204;22.552;2023-08-30T00:10:19;6.07;;;4.22;;
42964;SDS011;28604;51.204;22.552;2023-08-30T00:12:45;6.13;;;5.63;;
42964;SDS011;28604;51.204;22.552;2023-08-30T00:15:11;11.77;;;10.55;;
42964;SDS011;28604;51.204;22.552;2023-08-30T00:17:37;19.95;;;12.05;;
42964;SDS011;28604;51.204;22.552;2023-08-30T00:20:03;14.75;;;10.13;;
42964;SDS011;28604;51.204;22.552;2023-08-30T00:22:29;10.30;;;8.45;;
42964;SDS011;28604;51.204;22.552;2023-08-30T00:24:56;10.05;;;7.13;;
42964;SDS011;28604;51.204;22.552;2023-08-30T00:27:22;9.40;;;6.72;;
42964;SDS011;28604;51.204;22.552;2023-08-30T00:29:49;12.30;;;7.10;;
42964;SDS011;28604;51.204;22.552;2023-08-30T00:32:15;13.15;;;7.05;;
42964;SDS011;28604;51.204;22.552;2023-08-30T00:34:41;6.10;;;5.22;;
42964;SDS011;28604;51.204;22.552;2023-08-30T00:37:07;8.82;;;5.35;;
42964;SDS011;28604;51.204;22.552;2023-08-30T00:39:34;4.75;;;4.35;;
42964;SDS011;28604;51.204;22.552;2023-08-30T00:42:03;7.57;;;5.40;;
42964;SDS011;28604;51.204;22.552;2023-08-30T00:44:31;6.82;;;4.28;;
42964;SDS011;28604;51.204;22.552;2023-08-30T00:46:57;5.18;;;4.10;;
42964;SDS011;28604;51.204;22.552;2023-08-30T00:49:24;10.18;;;4.90;;
42964;SDS011;28604;51.204;22.552;2023-08-30T00:51:50;6.03;;;4.53;;
42964;SDS011;28604;51.204;22.552;2023-08-30T00:54:17;5.78;;;4.75;;
42964;SDS011;28604;51.204;22.552;2023-08-30T00:56:43;5.60;;;5.10;;
42964;SDS011;28604;51.204;22.552;2023-08-30T00:59:10;11.88;;;5.65;;
42964;SDS011;28604;51.204;22.552;2023-08-30T01:01:37;5.60;;;4.85;;
42964;SDS011;28604;51.204;22.552;2023-08-30T01:04:06;6.78;;;4.68;;
42964;SDS011;28604;51.204;22.552;2023-08-30T01:06:32;5.53;;;5.00;;
42964;SDS011;28604;51.204;22.552;2023-08-30T01:09:01;7.03;;;4.57;;
42964;SDS011;28604;51.204;22.552;2023-08-30T01:14:20;20.30;;;4.60;;
42964;SDS011;28604;51.204;22.552;2023-08-30T01:16:51;7.68;;;4.57;;
42964;SDS011;28604;51.204;22.552;2023-08-30T01:24:41;9.18;;;4.53;;
42964;SDS011;28604;51.204;22.552;2023-08-30T01:27:14;11.32;;;4.70;;
42964;SDS011;28604;51.204;22.552;2023-08-30T01:29:43;5.60;;;4.43;;
42964;SDS011;28604;51.204;22.552;2023-08-30T01:32:10;17.05;;;5.47;;
42964;SDS011;28604;51.204;22.552;2023-08-30T01:34:38;5.45;;;4.25;;
42964;SDS011;28604;51.204;22.552;2023-08-30T01:37:07;11.50;;;5.22;;
42964;SDS011;28604;51.204;22.552;2023-08-30T01:39:34;6.38;;;4.18;;
42964;SDS011;28604;51.204;22.552;2023-08-30T01:42:02;6.18;;;4.38;;
42964;SDS011;28604;51.204;22.552;2023-08-30T01:44:29;6.28;;;5.22;;
42964;SDS011;28604;51.204;22.552;2023-08-30T01:46:56;4.72;;;4.40;;
42964;SDS011;28604;51.204;22.552;2023-08-30T01:49:24;7.25;;;4.78;;
42964;SDS011;28604;51.204;22.552;2023-08-30T01:51:50;6.65;;;5.07;;
42964;SDS011;28604;51.204;22.552;2023-08-30T01:54:18;8.35;;;4.93;;
42964;SDS011;28604;51.204;22.552;2023-08-30T01:56:45;6.90;;;4.93;;
42964;SDS011;28604;51.204;22.552;2023-08-30T01:59:12;9.07;;;4.80;;
42964;SDS011;28604;51.204;22.552;2023-08-30T02:01:38;7.75;;;4.78;;
42964;SDS011;28604;51.204;22.552;2023-08-30T02:04:04;4.95;;;4.07;;
42964;SDS011;28604;51.204;22.552;2023-08-30T02:06:39;10.82;;;4.70;;
42964;SDS011;28604;51.204;22.552;2023-08-30T02:09:17;9.77;;;5.38;;
42964;SDS011;28604;51.204;22.552;2023-08-30T02:11:48;7.20;;;4.57;;
42964;SDS011;28604;51.204;22.552;2023-08-30T02:14:17;4.80;;;4.22;;
42964;SDS011;28604;51.204;22.552;2023-08-30T02:16:45;6.95;;;4.03;;
42964;SDS011;28604;51.204;22.552;2023-08-30T02:19:12;5.43;;;4.10;;
42964;SDS011;28604;51.204;22.552;2023-08-30T02:21:42;7.50;;;4.13;;
42964;SDS011;28604;51.204;22.552;2023-08-30T02:24:10;6.82;;;4.40;;
42964;SDS011;28604;51.204;22.552;2023-08-30T02:26:35;9.02;;;4.35;;
42964;SDS011;28604;51.204;22.552;2023-08-30T02:29:01;8.90;;;3.92;;
42964;SDS011;28604;51.204;22.552;2023-08-30T02:31:28;3.78;;;3.28;;
42964;SDS011;28604;51.204;22.552;2023-08-30T02:33:54;5.97;;;3.85;;
42964;SDS011;28604;51.204;22.552;2023-08-30T02:36:20;9.85;;;3.97;;
42964;SDS011;28604;51.204;22.552;2023-08-30T02:38:46;7.13;;;3.97;;
42964;SDS011;28604;51.204;22.552;2023-08-30T02:41:14;11.10;;;4.00;;
42964;SDS011;28604;51.204;22.552;2023-08-30T02:43:40;5.32;;;3.38;;
42964;SDS011;28604;51.204;22.552;2023-08-30T02:46:06;7.97;;;2.92;;
42964;SDS011;28604;51.204;22.552;2023-08-30T02:48:32;3.45;;;3.15;;
42964;SDS011;28604;51.204;22.552;2023-08-30T02:50:58;11.57;;;4.18;;
42964;SDS011;28604;51.204;22.552;2023-08-30T02:53:25;6.63;;;3.20;;
42964;SDS011;28604;51.204;22.552;2023-08-30T02:55:51;3.97;;;3.60;;
42964;SDS011;28604;51.204;22.552;2023-08-30T02:58:17;14.13;;;3.65;;
42964;SDS011;28604;51.204;22.552;2023-08-30T03:00:43;8.63;;;3.38;;
42964;SDS011;28604;51.204;22.552;2023-08-30T03:03:09;4.65;;;3.45;;
42964;SDS011;28604;51.204;22.552;2023-08-30T03:05:35;5.97;;;3.80;;
42964;SDS011;28604;51.204;22.552;2023-08-30T03:08:03;6.68;;;4.30;;
42964;SDS011;28604;51.204;22.552;2023-08-30T03:10:29;4.18;;;3.17;;
42964;SDS011;28604;51.204;22.552;2023-08-30T03:12:55;7.90;;;3.30;;
42964;SDS011;28604;51.204;22.552;2023-08-30T03:15:21;6.80;;;3.78;;
42964;SDS011;28604;51.204;22.552;2023-08-30T03:17:47;3.67;;;3.40;;
42964;SDS011;28604;51.204;22.552;2023-08-30T03:20:13;6.05;;;3.40;;
42964;SDS011;28604;51.204;22.552;2023-08-30T03:22:39;5.90;;;3.65;;
42964;SDS011;28604;51.204;22.552;2023-08-30T03:25:05;6.18;;;3.45;;
42964;SDS011;28604;51.204;22.552;2023-08-30T03:27:32;3.08;;;2.88;;
42964;SDS011;28604;51.204;22.552;2023-08-30T03:29:58;5.68;;;3.72;;
42964;SDS011;28604;51.204;22.552;2023-08-30T03:32:24;5.30;;;2.83;;
42964;SDS011;28604;51.204;22.552;2023-08-30T03:34:50;9.57;;;3.80;;
42964;SDS011;28604;51.204;22.552;2023-08-30T03:37:17;6.63;;;3.75;;
42964;SDS011;28604;51.204;22.552;2023-08-30T03:39:43;7.32;;;4.15;;
42964;SDS011;28604;51.204;22.552;2023-08-30T03:42:09;5.75;;;3.45;;
42964;SDS011;28604;51.204;22.552;2023-08-30T03:44:35;3.95;;;3.10;;
42964;SDS011;28604;51.204;22.552;2023-08-30T03:47:02;4.10;;;3.55;;
42964;SDS011;28604;51.204;22.552;2023-08-30T03:49:28;4.88;;;3.05;;
42964;SDS011;28604;51.204;22.552;2023-08-30T03:51:55;6.13;;;3.35;;
42964;SDS011;28604;51.204;22.552;2023-08-30T03:54:22;4.97;;;3.50;;
42964;SDS011;28604;51.204;22.552;2023-08-30T03:56:48;5.00;;;3.28;;
42964;SDS011;28604;51.204;22.552;2023-08-30T03:59:14;8.93;;;4.35;;
42964;SDS011;28604;51.204;22.552;2023-08-30T04:01:40;8.27;;;3.33;;
42964;SDS011;28604;51.204;22.552;2023-08-30T04:04:06;4.18;;;3.33;;
42964;SDS011;28604;51.204;22.552;2023-08-30T04:06:32;6.03;;;3.22;;
42964;SDS011;28604;51.204;22.552;2023-08-30T04:08:58;6.00;;;3.47;;
42964;SDS011;28604;51.204;22.552;2023-08-30T04:11:24;7.10;;;4.03;;
42964;SDS011;28604;51.204;22.552;2023-08-30T04:13:49;7.03;;;4.38;;
42964;SDS011;28604;51.204;22.552;2023-08-30T04:16:18;6.97;;;4.50;;
42964;SDS011;28604;51.204;22.552;2023-08-30T04:18:44;4.40;;;3.25;;
42964;SDS011;28604;51.204;22.552;2023-08-30T04:21:10;5.78;;;3.55;;
42964;SDS011;28604;51.204;22.552;2023-08-30T04:23:36;7.45;;;4.10;;
42964;SDS011;28604;51.204;22.552;2023-08-30T04:26:02;5.50;;;3.70;;
42964;SDS011;28604;51.204;22.552;2023-08-30T04:28:28;8.68;;;4.50;;
42964;SDS011;28604;51.204;22.552;2023-08-30T04:30:54;6.95;;;4.40;;
42964;SDS011;28604;51.204;22.552;2023-08-30T04:33:21;5.10;;;4.32;;
42964;SDS011;28604;51.204;22.552;2023-08-30T04:35:51;4.90;;;4.45;;
42964;SDS011;28604;51.204;22.552;2023-08-30T04:38:17;5.20;;;4.15;;
42964;SDS011;28604;51.204;22.552;2023-08-30T04:40:45;9.05;;;4.55;;
42964;SDS011;28604;51.204;22.552;2023-08-30T04:43:14;14.23;;;4.30;;
42964;SDS011;28604;51.204;22.552;2023-08-30T04:45:40;9.32;;;4.78;;
42964;SDS011;28604;51.204;22.552;2023-08-30T04:48:06;9.13;;;5.00;;
42964;SDS011;28604;51.204;22.552;2023-08-30T04:50:33;8.32;;;4.60;;
42964;SDS011;28604;51.204;22.552;2023-08-30T04:53:00;5.82;;;4.40;;
42964;SDS011;28604;51.204;22.552;2023-08-30T04:55:29;5.15;;;4.00;;
42964;SDS011;28604;51.204;22.552;2023-08-30T04:57:58;7.70;;;4.78;;
42964;SDS011;28604;51.204;22.552;2023-08-30T05:00:26;7.18;;;4.70;;
42964;SDS011;28604;51.204;22.552;2023-08-30T05:02:52;4.82;;;4.50;;
42964;SDS011;28604;51.204;22.552;2023-08-30T05:05:19;5.65;;;4.75;;
42964;SDS011;28604;51.204;22.552;2023-08-30T05:07:45;5.10;;;4.05;;
42964;SDS011;28604;51.204;22.552;2023-08-30T05:10:12;4.95;;;4.53;;
42964;SDS011;28604;51.204;22.552;2023-08-30T05:12:38;5.75;;;4.80;;
42964;SDS011;28604;51.204;22.552;2023-08-30T05:15:05;6.72;;;5.30;;
42964;SDS011;28604;51.204;22.552;2023-08-30T05:17:31;7.63;;;5.10;;
42964;SDS011;28604;51.204;22.552;2023-08-30T05:19:58;5.78;;;5.25;;
42964;SDS011;28604;51.204;22.552;2023-08-30T05:22:24;7.30;;;4.93;;
42964;SDS011;28604;51.204;22.552;2023-08-30T05:24:50;10.38;;;4.45;;
42964;SDS011;28604;51.204;22.552;2023-08-30T05:27:16;4.95;;;4.60;;
42964;SDS011;28604;51.204;22.552;2023-08-30T05:29:43;7.80;;;5.00;;
42964;SDS011;28604;51.204;22.552;2023-08-30T05:32:09;7.68;;;4.57;;
42964;SDS011;28604;51.204;22.552;2023-08-30T05:34:53;5.25;;;4.47;;
42964;SDS011;28604;51.204;22.552;2023-08-30T05:37:40;7.55;;;4.53;;
42964;SDS011;28604;51.204;22.552;2023-08-30T05:40:24;10.75;;;4.40;;
42964;SDS011;28604;51.204;22.552;2023-08-30T05:42:50;5.15;;;4.68;;
42964;SDS011;28604;51.204;22.552;2023-08-30T05:45:16;5.95;;;4.82;;
42964;SDS011;28604;51.204;22.552;2023-08-30T05:47:42;10.80;;;5.20;;
42964;SDS011;28604;51.204;22.552;2023-08-30T05:50:09;6.47;;;4.70;;
42964;SDS011;28604;51.204;22.552;2023-08-30T05:52:35;5.38;;;4.95;;
42964;SDS011;28604;51.204;22.552;2023-08-30T05:55:01;12.50;;;5.45;;
42964;SDS011;28604;51.204;22.552;2023-08-30T05:57:27;6.65;;;4.57;;
42964;SDS011;28604;51.204;22.552;2023-08-30T05:59:59;7.10;;;5.00;;
42964;SDS011;28604;51.204;22.552;2023-08-30T06:02:25;11.05;;;4.72;;
42964;SDS011;28604;51.204;22.552;2023-08-30T06:04:51;11.23;;;5.13;;
42964;SDS011;28604;51.204;22.552;2023-08-30T06:07:17;9.02;;;5.50;;
42964;SDS011;28604;51.204;22.552;2023-08-30T06:09:43;13.68;;;5.00;;
42964;SDS011;28604;51.204;22.552;2023-08-30T06:12:09;13.40;;;5.60;;
42964;SDS011;28604;51.204;22.552;2023-08-30T06:14:36;5.90;;;5.43;;
42964;SDS011;28604;51.204;22.552;2023-08-30T06:17:02;6.78;;;5.72;;
42964;SDS011;28604;51.204;22.552;2023-08-30T06:19:28;9.27;;;5.30;;
42964;SDS011;28604;51.204;22.552;2023-08-30T06:21:53;7.18;;;5.28;;
42964;SDS011;28604;51.204;22.552;2023-08-30T06:24:20;5.10;;;4.30;;
42964;SDS011;28604;51.204;22.552;2023-08-30T06:26:46;8.60;;;4.53;;
42964;SDS011;28604;51.204;22.552;2023-08-30T06:29:13;7.40;;;5.75;;
42964;SDS011;28604;51.204;22.552;2023-08-30T06:31:38;7.10;;;4.72;;
42964;SDS011;28604;51.204;22.552;2023-08-30T06:34:07;7.38;;;4.63;;
42964;SDS011;28604;51.204;22.552;2023-08-30T06:36:33;15.13;;;4.32;;
42964;SDS011;28604;51.204;22.552;2023-08-30T06:38:59;7.50;;;5.05;;
42964;SDS011;28604;51.204;22.552;2023-08-30T06:41:24;7.03;;;5.00;;
42964;SDS011;28604;51.204;22.552;2023-08-30T06:43:51;8.05;;;4.47;;
42964;SDS011;28604;51.204;22.552;2023-08-30T06:46:16;4.90;;;4.43;;
42964;SDS011;28604;51.204;22.552;2023-08-30T06:48:42;5.05;;;4.00;;
42964;SDS011;28604;51.204;22.552;2023-08-30T06:51:08;10.45;;;4.32;;
42964;SDS011;28604;51.204;22.552;2023-08-30T06:53:36;4.72;;;3.92;;
42964;SDS011;28604;51.204;22.552;2023-08-30T06:56:02;16.65;;;3.95;;
42964;SDS011;28604;51.204;22.552;2023-08-30T06:58:28;4.95;;;3.78;;
42964;SDS011;28604;51.204;22.552;2023-08-30T07:00:54;4.00;;;3.63;;
42964;SDS011;28604;51.204;22.552;2023-08-30T07:03:25;9.25;;;3.80;;
42964;SDS011;28604;51.204;22.552;2023-08-30T07:05:51;6.05;;;3.80;;
42964;SDS011;28604;51.204;22.552;2023-08-30T07:08:21;6.00;;;3.55;;
42964;SDS011;28604;51.204;22.552;2023-08-30T07:10:47;4.30;;;3.90;;
42964;SDS011;28604;51.204;22.552;2023-08-30T07:13:17;4.70;;;3.72;;
42964;SDS011;28604;51.204;22.552;2023-08-30T07:15:43;4.18;;;3.60;;
42964;SDS011;28604;51.204;22.552;2023-08-30T07:18:09;7.00;;;4.50;;
42964;SDS011;28604;51.204;22.552;2023-08-30T07:20:35;4.20;;;3.80;;
42964;SDS011;28604;51.204;22.552;2023-08-30T07:23:03;4.57;;;4.28;;
42964;SDS011;28604;51.204;22.552;2023-08-30T07:25:30;13.23;;;4.45;;
42964;SDS011;28604;51.204;22.552;2023-08-30T07:27:58;9.85;;;4.10;;
42964;SDS011;28604;51.204;22.552;2023-08-30T07:30:24;5.55;;;3.85;;
42964;SDS011;28604;51.204;22.552;2023-08-30T07:32:50;12.25;;;4.93;;
42964;SDS011;28604;51.204;22.552;2023-08-30T07:35:16;8.02;;;4.57;;
42964;SDS011;28604;51.204;22.552;2023-08-30T07:37:43;6.50;;;4.28;;
42964;SDS011;28604;51.204;22.552;2023-08-30T07:40:08;9.73;;;4.68;;
42964;SDS011;28604;51.204;22.552;2023-08-30T07:42:35;3.80;;;3.42;;
42964;SDS011;28604;51.204;22.552;2023-08-30T07:45:01;8.30;;;4.85;;
42964;SDS011;28604;51.204;22.552;2023-08-30T07:47:27;7.82;;;4.50;;
42964;SDS011;28604;51.204;22.552;2023-08-30T07:49:53;3.75;;;3.47;;
42964;SDS011;28604;51.204;22.552;2023-08-30T07:52:19;4.82;;;4.32;;
42964;SDS011;28604;51.204;22.552;2023-08-30T07:54:45;4.35;;;4.03;;
42964;SDS011;28604;51.204;22.552;2023-08-30T07:57:11;4.03;;;3.65;;
42964;SDS011;28604;51.204;22.552;2023-08-30T07:59:37;4.90;;;4.00;;
42964;SDS011;28604;51.204;22.552;2023-08-30T08:02:03;4.53;;;4.00;;
42964;SDS011;28604;51.204;22.552;2023-08-30T08:04:31;4.75;;;3.85;;
42964;SDS011;28604;51.204;22.552;2023-08-30T08:06:57;3.72;;;3.47;;
42964;SDS011;28604;51.204;22.552;2023-08-30T08:09:23;4.15;;;3.80;;
42964;SDS011;28604;51.204;22.552;2023-08-30T08:11:50;7.57;;;3.15;;
42964;SDS011;28604;51.204;22.552;2023-08-30T08:14:15;4.28;;;3.13;;
42964;SDS011;28604;51.204;22.552;2023-08-30T08:16:42;3.05;;;2.78;;
42964;SDS011;28604;51.204;22.552;2023-08-30T08:19:07;4.63;;;2.97;;
42964;SDS011;28604;51.204;22.552;2023-08-30T08:21:34;3.55;;;2.60;;
42964;SDS011;28604;51.204;22.552;2023-08-30T08:24:01;5.20;;;3.30;;
42964;SDS011;28604;51.204;22.552;2023-08-30T08:26:28;3.67;;;3.38;;
42964;SDS011;28604;51.204;22.552;2023-08-30T08:28:54;3.53;;;3.22;;
42964;SDS011;28604;51.204;22.552;2023-08-30T08:31:21;3.83;;;3.28;;
42964;SDS011;28604;51.204;22.552;2023-08-30T08:33:50;3.53;;;2.72;;
42964;SDS011;28604;51.204;22.552;2023-08-30T08:36:17;4.68;;;3.53;;
42964;SDS011;28604;51.204;22.552;2023-08-30T08:38:43;6.43;;;2.90;;
42964;SDS011;28604;51.204;22.552;2023-08-30T08:41:09;3.25;;;2.95;;
42964;SDS011;28604;51.204;22.552;2023-08-30T08:43:39;3.13;;;2.75;;
42964;SDS011;28604;51.204;22.552;2023-08-30T08:46:08;6.65;;;2.40;;
42964;SDS011;28604;51.204;22.552;2023-08-30T08:48:40;2.78;;;2.50;;
42964;SDS011;28604;51.204;22.552;2023-08-30T08:51:08;4.95;;;2.40;;
42964;SDS011;28604;51.204;22.552;2023-08-30T08:53:35;4.10;;;2.90;;
42964;SDS011;28604;51.204;22.552;2023-08-30T08:56:03;6.65;;;2.55;;
42964;SDS011;28604;51.204;22.552;2023-08-30T08:58:34;2.33;;;2.22;;
42964;SDS011;28604;51.204;22.552;2023-08-30T09:01:03;2.47;;;2.35;;
42964;SDS011;28604;51.204;22.552;2023-08-30T09:03:30;7.43;;;3.03;;
42964;SDS011;28604;51.204;22.552;2023-08-30T09:05:58;2.30;;;2.20;;
42964;SDS011;28604;51.204;22.552;2023-08-30T09:08:25;8.10;;;2.55;;
42964;SDS011;28604;51.204;22.552;2023-08-30T09:10:51;1.92;;;1.83;;
42964;SDS011;28604;51.204;22.552;2023-08-30T09:13:17;2.40;;;2.10;;
42964;SDS011;28604;51.204;22.552;2023-08-30T09:15:45;4.68;;;2.25;;
42964;SDS011;28604;51.204;22.552;2023-08-30T09:18:14;2.50;;;2.30;;
42964;SDS011;28604;51.204;22.552;2023-08-30T09:20:43;4.03;;;2.40;;
42964;SDS011;28604;51.204;22.552;2023-08-30T09:23:16;2.28;;;2.15;;
42964;SDS011;28604;51.204;22.552;2023-08-30T09:25:43;2.72;;;2.50;;
42964;SDS011;28604;51.204;22.552;2023-08-30T09:28:10;4.07;;;2.20;;
42964;SDS011;28604;51.204;22.552;2023-08-30T09:30:36;2.75;;;2.10;;
42964;SDS011;28604;51.204;22.552;2023-08-30T09:33:02;3.45;;;2.30;;
42964;SDS011;28604;51.204;22.552;2023-08-30T09:35:29;3.17;;;2.30;;
42964;SDS011;28604;51.204;22.552;2023-08-30T09:37:55;5.13;;;2.00;;
42964;SDS011;28604;51.204;22.552;2023-08-30T09:40:21;3.88;;;2.88;;
42964;SDS011;28604;51.204;22.552;2023-08-30T09:42:47;3.00;;;1.83;;
42964;SDS011;28604;51.204;22.552;2023-08-30T09:45:23;2.25;;;2.03;;
42964;SDS011;28604;51.204;22.552;2023-08-30T09:47:49;2.40;;;2.20;;
42964;SDS011;28604;51.204;22.552;2023-08-30T09:50:19;5.78;;;3.05;;
42964;SDS011;28604;51.204;22.552;2023-08-30T09:52:49;3.67;;;2.40;;
42964;SDS011;28604;51.204;22.552;2023-08-30T09:55:16;3.58;;;2.55;;
42964;SDS011;28604;51.204;22.552;2023-08-30T09:57:44;4.10;;;2.10;;
42964;SDS011;28604;51.204;22.552;2023-08-30T10:00:10;5.90;;;2.40;;
42964;SDS011;28604;51.204;22.552;2023-08-30T10:02:41;2.80;;;2.58;;
42964;SDS011;28604;51.204;22.552;2023-08-30T10:05:09;3.05;;;2.03;;
42964;SDS011;28604;51.204;22.552;2023-08-30T10:07:37;3.75;;;2.40;;
42964;SDS011;28604;51.204;22.552;2023-08-30T10:10:04;2.85;;;2.47;;
42964;SDS011;28604;51.204;22.552;2023-08-30T10:12:31;4.30;;;2.00;;
42964;SDS011;28604;51.204;22.552;2023-08-30T10:14:57;2.10;;;2.00;;
42964;SDS011;28604;51.204;22.552;2023-08-30T10:17:26;5.10;;;2.35;;
42964;SDS011;28604;51.204;22.552;2023-08-30T10:19:54;4.53;;;3.35;;
42964;SDS011;28604;51.204;22.552;2023-08-30T10:22:21;2.97;;;2.78;;
42964;SDS011;28604;51.204;22.552;2023-08-30T10:24:53;4.95;;;2.83;;
42964;SDS011;28604;51.204;22.552;2023-08-30T10:27:23;2.30;;;2.20;;
42964;SDS011;28604;51.204;22.552;2023-08-30T10:29:51;4.13;;;2.58;;
42964;SDS011;28604;51.204;22.552;2023-08-30T10:32:21;5.88;;;2.90;;
42964;SDS011;28604;51.204;22.552;2023-08-30T10:34:48;8.30;;;3.08;;
42964;SDS011;28604;51.204;22.552;2023-08-30T10:37:15;3.83;;;2.90;;
42964;SDS011;28604;51.204;22.552;2023-08-30T10:39:42;3.13;;;2.92;;
42964;SDS011;28604;51.204;22.552;2023-08-30T10:42:13;3.47;;;3.13;;
42964;SDS011;28604;51.204;22.552;2023-08-30T10:44:48;3.47;;;2.85;;
42964;SDS011;28604;51.204;22.552;2023-08-30T10:47:17;5.03;;;3.05;;
42964;SDS011;28604;51.204;22.552;2023-08-30T10:49:46;5.43;;;2.67;;
42964;SDS011;28604;51.204;22.552;2023-08-30T10:52:13;7.00;;;3.38;;
42964;SDS011;28604;51.204;22.552;2023-08-30T10:54:39;5.75;;;2.80;;
42964;SDS011;28604;51.204;22.552;2023-08-30T10:57:05;6.28;;;3.05;;
42964;SDS011;28604;51.204;22.552;2023-08-30T10:59:37;10.40;;;3.22;;
42964;SDS011;28604;51.204;22.552;2023-08-30T11:02:03;3.83;;;3.08;;
42964;SDS011;28604;51.204;22.552;2023-08-30T11:04:31;3.60;;;3.28;;
42964;SDS011;28604;51.204;22.552;2023-08-30T11:06:57;3.75;;;3.00;;
42964;SDS011;28604;51.204;22.552;2023-08-30T11:09:24;6.43;;;3.63;;
42964;SDS011;28604;51.204;22.552;2023-08-30T11:11:51;5.75;;;3.67;;
42964;SDS011;28604;51.204;22.552;2023-08-30T11:14:17;3.75;;;3.42;;
42964;SDS011;28604;51.204;22.552;2023-08-30T11:16:44;4.07;;;3.78;;
42964;SDS011;28604;51.204;22.552;2023-08-30T11:19:10;4.60;;;3.63;;
42964;SDS011;28604;51.204;22.552;2023-08-30T11:21:38;8.90;;;3.88;;
42964;SDS011;28604;51.204;22.552;2023-08-30T11:24:06;4.35;;;3.42;;
42964;SDS011;28604;51.204;22.552;2023-08-30T11:26:32;4.40;;;3.05;;
42964;SDS011;28604;51.204;22.552;2023-08-30T11:29:08;5.57;;;3.20;;
42964;SDS011;28604;51.204;22.552;2023-08-30T11:31:34;3.47;;;3.25;;
42964;SDS011;28604;51.204;22.552;2023-08-30T11:34:01;3.58;;;3.15;;
42964;SDS011;28604;51.204;22.552;2023-08-30T11:36:30;3.92;;;3.67;;
42964;SDS011;28604;51.204;22.552;2023-08-30T11:38:58;4.13;;;3.72;;
42964;SDS011;28604;51.204;22.552;2023-08-30T11:41:24;4.28;;;3.60;;
42964;SDS011;28604;51.204;22.552;2023-08-30T11:43:51;4.68;;;3.50;;
42964;SDS011;28604;51.204;22.552;2023-08-30T11:46:18;3.65;;;3.35;;
42964;SDS011;28604;51.204;22.552;2023-08-30T11:48:46;3.70;;;3.50;;
42964;SDS011;28604;51.204;22.552;2023-08-30T11:51:13;3.40;;;3.00;;
42964;SDS011;28604;51.204;22.552;2023-08-30T11:53:40;4.65;;;3.28;;
42964;SDS011;28604;51.204;22.552;2023-08-30T11:56:07;4.60;;;2.97;;
42964;SDS011;28604;51.204;22.552;2023-08-30T11:58:34;3.40;;;3.10;;
42964;SDS011;28604;51.204;22.552;2023-08-30T12:01:01;3.75;;;3.45;;
42964;SDS011;28604;51.204;22.552;2023-08-30T12:03:27;3.85;;;3.55;;
42964;SDS011;28604;51.204;22.552;2023-08-30T12:05:54;3.55;;;2.88;;
42964;SDS011;28604;51.204;22.552;2023-08-30T12:08:21;3.28;;;3.08;;
42964;SDS011;28604;51.204;22.552;2023-08-30T12:10:51;4.15;;;3.15;;
42964;SDS011;28604;51.204;22.552;2023-08-30T12:13:22;4.63;;;3.38;;
42964;SDS011;28604;51.204;22.552;2023-08-30T12:15:52;3.50;;;3.20;;
42964;SDS011;28604;51.204;22.552;2023-08-30T12:18:22;3.63;;;3.38;;
42964;SDS011;28604;51.204;22.552;2023-08-30T12:20:53;4.10;;;3.28;;
42964;SDS011;28604;51.204;22.552;2023-08-30T12:23:21;2.83;;;2.70;;
42964;SDS011;28604;51.204;22.552;2023-08-30T12:28:27;3.90;;;2.88;;
42964;SDS011;28604;51.204;22.552;2023-08-30T12:30:54;6.97;;;3.60;;
42964;SDS011;28604;51.204;22.552;2023-08-30T12:33:21;3.42;;;2.63;;
42964;SDS011;28604;51.204;22.552;2023-08-30T12:35:47;4.63;;;3.13;;
42964;SDS011;28604;51.204;22.552;2023-08-30T12:38:13;3.30;;;3.10;;
42964;SDS011;28604;51.204;22.552;2023-08-30T12:40:45;3.13;;;2.60;;
42964;SDS011;28604;51.204;22.552;2023-08-30T12:43:13;3.80;;;3.50;;
42964;SDS011;28604;51.204;22.552;2023-08-30T12:45:40;6.00;;;3.45;;
42964;SDS011;28604;51.204;22.552;2023-08-30T12:48:07;5.00;;;3.38;;
42964;SDS011;28604;51.204;22.552;2023-08-30T12:50:37;3.90;;;2.70;;
42964;SDS011;28604;51.204;22.552;2023-08-30T12:53:06;3.22;;;2.60;;
42964;SDS011;28604;51.204;22.552;2023-08-30T12:55:33;11.00;;;3.03;;
42964;SDS011;28604;51.204;22.552;2023-08-30T12:58:00;4.90;;;2.05;;
42964;SDS011;28604;51.204;22.552;2023-08-30T13:00:26;2.80;;;2.60;;
42964;SDS011;28604;51.204;22.552;2023-08-30T13:02:52;2.55;;;2.47;;
42964;SDS011;28604;51.204;22.552;2023-08-30T13:05:18;1.90;;;1.90;;
42964;SDS011;28604;51.204;22.552;2023-08-30T13:07:44;2.15;;;2.13;;
42964;SDS011;28604;51.204;22.552;2023-08-30T13:10:11;2.53;;;2.42;;
42964;SDS011;28604;51.204;22.552;2023-08-30T13:12:37;2.55;;;2.45;;
42964;SDS011;28604;51.204;22.552;2023-08-30T13:15:03;2.22;;;2.13;;
42964;SDS011;28604;51.204;22.552;2023-08-30T13:17:30;3.20;;;2.67;;
42964;SDS011;28604;51.204;22.552;2023-08-30T13:19:56;5.80;;;2.40;;
42964;SDS011;28604;51.204;22.552;2023-08-30T13:22:23;2.78;;;2.58;;
42964;SDS011;28604;51.204;22.552;2023-08-30T13:24:50;3.65;;;2.97;;
42964;SDS011;28604;51.204;22.552;2023-08-30T13:27:16;2.30;;;2.20;;
42964;SDS011;28604;51.204;22.552;2023-08-30T13:29:42;2.70;;;2.50;;
42964;SDS011;28604;51.204;22.552;2023-08-30T13:32:08;2.22;;;2.00;;
42964;SDS011;28604;51.204;22.552;2023-08-30T13:34:34;2.72;;;2.53;;
42964;SDS011;28604;51.204;22.552;2023-08-30T13:37:00;2.35;;;2.25;;
42964;SDS011;28604;51.204;22.552;2023-08-30T13:39:26;4.55;;;2.53;;
42964;SDS011;28604;51.204;22.552;2023-08-30T13:41:52;2.95;;;2.70;;
42964;SDS011;28604;51.204;22.552;2023-08-30T13:44:18;2.53;;;2.42;;
42964;SDS011;28604;51.204;22.552;2023-08-30T13:46:44;2.67;;;2.58;;
42964;SDS011;28604;51.204;22.552;2023-08-30T13:49:13;3.83;;;2.45;;
42964;SDS011;28604;51.204;22.552;2023-08-30T13:51:39;2.40;;;2.30;;
42964;SDS011;28604;51.204;22.552;2023-08-30T13:54:04;2.65;;;2.45;;
42964;SDS011;28604;51.204;22.552;2023-08-30T13:56:31;4.50;;;3.30;;
42964;SDS011;28604;51.204;22.552;2023-08-30T13:58:57;3.42;;;3.13;;
42964;SDS011;28604;51.204;22.552;2023-08-30T14:01:23;4.05;;;2.45;;
42964;SDS011;28604;51.204;22.552;2023-08-30T14:03:49;3.05;;;2.70;;
42964;SDS011;28604;51.204;22.552;2023-08-30T14:06:15;4.15;;;2.17;;
42964;SDS011;28604;51.204;22.552;2023-08-30T14:08:42;3.13;;;2.08;;
42964;SDS011;28604;51.204;22.552;2023-08-30T14:11:08;4.10;;;2.72;;
42964;SDS011;28604;51.204;22.552;2023-08-30T14:13:34;4.55;;;2.28;;
42964;SDS011;28604;51.204;22.552;2023-08-30T14:16:01;5.63;;;2.67;;
42964;SDS011;28604;51.204;22.552;2023-08-30T14:18:30;2.33;;;2.22;;
42964;SDS011;28604;51.204;22.552;2023-08-30T14:20:57;2.35;;;2.25;;
42964;SDS011;28604;51.204;22.552;2023-08-30T14:23:27;2.92;;;2.50;;
42964;SDS011;28604;51.204;22.552;2023-08-30T14:25:58;2.22;;;2.20;;
42964;SDS011;28604;51.204;22.552;2023-08-30T14:28:27;6.03;;;2.88;;
42964;SDS011;28604;51.204;22.552;2023-08-30T14:30:53;2.63;;;2.42;;
42964;SDS011;28604;51.204;22.552;2023-08-30T14:33:19;2.53;;;2.42;;
42964;SDS011;28604;51.204;22.552;2023-08-30T14:35:46;2.28;;;2.17;;
42964;SDS011;28604;51.204;22.552;2023-08-30T14:38:12;2.17;;;2.10;;
42964;SDS011;28604;51.204;22.552;2023-08-30T14:40:38;2.42;;;2.33;;
42964;SDS011;28604;51.204;22.552;2023-08-30T14:43:04;5.10;;;2.53;;